Observation data for Jayton on 01/18/2019      Previous  Date  Next       Current Mesonet Observations  Soil Data  Daily Summary Page  Observations in Plain Language
KJTS 180600Z 18007KT 06/03 A3002 RMK A01 T00610029  RH  081%=      5-min Rain = 0
KJTS 180605Z 18007KT 06/03 A3002 RMK A01 T00580029  RH  083%=      5-min Rain = 0
KJTS 180610Z 18008KT 06/03 A3002 RMK A01 T00600029  RH  082%=      5-min Rain = 0
KJTS 180615Z 18006KT 06/03 A3002 RMK A01 T00590028  RH  082%=      5-min Rain = 0
KJTS 180620Z 19005KT 06/03 A3002 RMK A01 T00590029  RH  082%=      5-min Rain = 0
KJTS 180625Z 20004KT 06/03 A3002 RMK A01 T00620030  RH  082%=      5-min Rain = 0
KJTS 180630Z 20004KT 06/03 A3002 RMK A01 T00630031  RH  081%=      5-min Rain = 0
KJTS 180635Z 21004KT 06/03 A3002 RMK A01 T00630030  RH  081%=      5-min Rain = 0
KJTS 180640Z 21004KT 06/03 A3001 RMK A01 T00630030  RH  081%=      5-min Rain = 0
KJTS 180645Z 22004KT 06/03 A3001 RMK A01 T00630030  RH  081%=      5-min Rain = 0
KJTS 180650Z 21003KT 06/03 A3001 RMK A01 T00610029  RH  082%=      5-min Rain = 0
KJTS 180655Z 20005KT 06/03 A30 RMK A01 T00630031  RH  081%=      5-min Rain = 0
KJTS 180700Z 19004KT 07/03 A30 RMK A01 T00660032  RH  080%=      5-min Rain = 0
KJTS 180705Z 20004KT 07/03 A30 RMK A01 T00660031  RH  080%=      5-min Rain = 0
KJTS 180710Z 20004KT 06/03 A30 RMK A01 T00640030  RH  081%=      5-min Rain = 0
KJTS 180715Z 20004KT 06/03 A30 RMK A01 T00640031  RH  081%=      5-min Rain = 0
KJTS 180720Z 20004KT 07/03 A30 RMK A01 T00660032  RH  080%=      5-min Rain = 0
KJTS 180725Z 20004KT 06/03 A2999 RMK A01 T00640030  RH  081%=      5-min Rain = 0
KJTS 180730Z 20005KT 06/03 A2999 RMK A01 T00640031  RH  081%=      5-min Rain = 0
KJTS 180735Z 20005KT 06/03 A2998 RMK A01 T00610031  RH  082%=      5-min Rain = 0
KJTS 180740Z 20005KT 06/03 A2998 RMK A01 T00610030  RH  082%=      5-min Rain = 0
KJTS 180745Z 20005KT 06/03 A2998 RMK A01 T00590029  RH  083%=      5-min Rain = 0
KJTS 180750Z 21005KT 06/03 A2998 RMK A01 T00560028  RH  083%=      5-min Rain = 0
KJTS 180755Z 21005KT 05/03 A2997 RMK A01 T00530026  RH  085%=      5-min Rain = 0
KJTS 180800Z 21006KT 05/03 A2997 RMK A01 T00500026  RH  086%=      5-min Rain = 0
KJTS 180805Z 21006KT 05/03 A2997 RMK A01 T00510026  RH  085%=      5-min Rain = 0
KJTS 180810Z 22006KT 05/03 A2997 RMK A01 T00510025  RH  085%=      5-min Rain = 0
KJTS 180815Z 22006KT 05/03 A2997 RMK A01 T00520025  RH  084%=      5-min Rain = 0
KJTS 180820Z 24005KT 06/03 A2997 RMK A01 T00570025  RH  082%=      5-min Rain = 0
KJTS 180825Z 24005KT 06/03 A2997 RMK A01 T00600026  RH  080%=      5-min Rain = 0
KJTS 180830Z 24006KT 06/03 A2997 RMK A01 T00580025  RH  081%=      5-min Rain = 0
KJTS 180835Z 24006KT 06/02 A2996 RMK A01 T00570024  RH  081%=      5-min Rain = 0
KJTS 180840Z 25005KT 06/02 A2996 RMK A01 T00570024  RH  081%=      5-min Rain = 0
KJTS 180845Z 25005KT 06/02 A2996 RMK A01 T00570024  RH  081%=      5-min Rain = 0
KJTS 180850Z 25006KT 06/03 A2996 RMK A01 T00580025  RH  080%=      5-min Rain = 0
KJTS 180855Z 24006KT 06/03 A2996 RMK A01 T00580025  RH  080%=      5-min Rain = 0
KJTS 180900Z 23005KT 06/03 A2996 RMK A01 T00590026  RH  081%=      5-min Rain = 0
KJTS 180905Z 21005KT 06/03 A2995 RMK A01 T00620026  RH  079%=      5-min Rain = 0
KJTS 180910Z 22005KT 06/03 A2995 RMK A01 T00620025  RH  078%=      5-min Rain = 0
KJTS 180915Z 21006KT 06/03 A2995 RMK A01 T00610025  RH  079%=      5-min Rain = 0
KJTS 180920Z 21005KT 06/02 A2995 RMK A01 T00620024  RH  078%=      5-min Rain = 0
KJTS 180925Z 20005KT 06/02 A2994 RMK A01 T00590022  RH  078%=      5-min Rain = 0
KJTS 180930Z 20006KT 06/02 A2994 RMK A01 T00600023  RH  078%=      5-min Rain = 0
KJTS 180935Z 21007KT 06/02 A2994 RMK A01 T00610022  RH  077%=      5-min Rain = 0
KJTS 180940Z 21007KT 06/02 A2994 RMK A01 T00610023  RH  078%=      5-min Rain = 0
KJTS 180945Z 21006KT 06/02 A2994 RMK A01 T00620023  RH  077%=      5-min Rain = 0
KJTS 180950Z 22006KT 06/02 A2994 RMK A01 T00630023  RH  076%=      5-min Rain = 0
KJTS 180955Z 22006KT 06/02 A2994 RMK A01 T00640023  RH  076%=      5-min Rain = 0
KJTS 181000Z 21006KT 07/02 A2993 RMK A01 T00660023  RH  075%=      5-min Rain = 0
KJTS 181005Z 21005KT 07/02 A2993 RMK A01 T00700024  RH  074%=      5-min Rain = 0
KJTS 181010Z 21005KT 07/02 A2993 RMK A01 T00660021  RH  074%=      5-min Rain = 0
KJTS 181015Z 20006KT 06/02 A2992 RMK A01 T00600020  RH  077%=      5-min Rain = 0
KJTS 181020Z 20006KT 06/02 A2992 RMK A01 T00620022  RH  077%=      5-min Rain = 0
KJTS 181025Z 20006KT 07/02 A2991 RMK A01 T00650022  RH  075%=      5-min Rain = 0
KJTS 181030Z 20005KT 07/02 A2991 RMK A01 T00650022  RH  075%=      5-min Rain = 0
KJTS 181035Z 20005KT 06/02 A2991 RMK A01 T00630021  RH  076%=      5-min Rain = 0
KJTS 181040Z 21005KT 06/02 A299 RMK A01 T00620020  RH  076%=      5-min Rain = 0
KJTS 181045Z 20005KT 06/02 A2989 RMK A01 T00610020  RH  076%=      5-min Rain = 0
KJTS 181050Z 22004KT 06/02 A2989 RMK A01 T00630020  RH  075%=      5-min Rain = 0
KJTS 181055Z 22005KT 06/02 A2989 RMK A01 T00570017  RH  076%=      5-min Rain = 0
KJTS 181100Z 22005KT 06/02 A2989 RMK A01 T00560019  RH  079%=      5-min Rain = 0
KJTS 181105Z 23005KT 06/02 A2989 RMK A01 T00580020  RH  078%=      5-min Rain = 0
KJTS 181110Z 23005KT 06/02 A2989 RMK A01 T00590020  RH  078%=      5-min Rain = 0
KJTS 181115Z 22006KT 06/02 A2988 RMK A01 T00630022  RH  076%=      5-min Rain = 0
KJTS 181120Z 23006KT 06/02 A2988 RMK A01 T00600020  RH  077%=      5-min Rain = 0
KJTS 181125Z 22007KT 06/02 A2987 RMK A01 T00630023  RH  077%=      5-min Rain = 0
KJTS 181130Z 22007KT 06/02 A2987 RMK A01 T00620022  RH  077%=      5-min Rain = 0
KJTS 181135Z 24006KT 06/02 A2987 RMK A01 T00610023  RH  078%=      5-min Rain = 0
KJTS 181140Z 22007KT 06/02 A2987 RMK A01 T00630023  RH  077%=      5-min Rain = 0
KJTS 181145Z 22008KT 07/02 A2987 RMK A01 T00650024  RH  076%=      5-min Rain = 0
KJTS 181150Z 23008KT 07/03 A2987 RMK A01 T00740030  RH  075%=      5-min Rain = 0
KJTS 181155Z 23008KT 08/03 A2987 RMK A01 T00800031  RH  072%=      5-min Rain = 0
KJTS 181200Z 23008KT 08/03 A2986 RMK A01 T00810030  RH  072%=      5-min Rain = 0
KJTS 181205Z 23008KT 08/03 A2986 RMK A01 T00780030  RH  072%=      5-min Rain = 0
KJTS 181210Z 22007KT 08/03 A2986 RMK A01 T00750029  RH  074%=      5-min Rain = 0
KJTS 181215Z 22007KT 07/03 A2986 RMK A01 T00720028  RH  075%=      5-min Rain = 0
KJTS 181220Z 21009KT 07/03 A2985 RMK A01 T00720029  RH  075%=      5-min Rain = 0
KJTS 181225Z 22008KT 07/03 A2985 RMK A01 T00740029  RH  075%=      5-min Rain = 0
KJTS 181230Z 22008KT 08/03 A2985 RMK A01 T00770030  RH  073%=      5-min Rain = 0
KJTS 181235Z 22009KT 08/03 A2985 RMK A01 T00810032  RH  072%=      5-min Rain = 0
KJTS 181240Z 22007KT 08/03 A2985 RMK A01 T00820032  RH  072%=      5-min Rain = 0
KJTS 181245Z 22007KT 08/03 A2985 RMK A01 T00790031  RH  073%=      5-min Rain = 0
KJTS 181250Z 23006KT 08/03 A2985 RMK A01 T00780030  RH  073%=      5-min Rain = 0
KJTS 181255Z 23006KT 08/03 A2985 RMK A01 T00800030  RH  072%=      5-min Rain = 0
KJTS 181300Z 22006KT 08/03 A2985 RMK A01 T00780030  RH  072%=      5-min Rain = 0
KJTS 181305Z 22007KT 08/03 A2984 RMK A01 T00760029  RH  073%=      5-min Rain = 0
KJTS 181310Z 22007KT 08/03 A2984 RMK A01 T00750029  RH  074%=      5-min Rain = 0
KJTS 181315Z 22006KT 07/03 A2985 RMK A01 T00740028  RH  074%=      5-min Rain = 0
KJTS 181320Z 22007KT 08/03 A2984 RMK A01 T00760029  RH  074%=      5-min Rain = 0
KJTS 181325Z 22007KT 08/03 A2984 RMK A01 T00750029  RH  074%=      5-min Rain = 0
KJTS 181330Z 22007KT 08/03 A2984 RMK A01 T00760029  RH  074%=      5-min Rain = 0
KJTS 181335Z 22007KT 08/03 A2984 RMK A01 T00780030  RH  073%=      5-min Rain = 0
KJTS 181340Z 22008KT 08/03 A2984 RMK A01 T00830031  RH  071%=      5-min Rain = 0
KJTS 181345Z 22008KT 08/03 A2984 RMK A01 T00830031  RH  071%=      5-min Rain = 0
KJTS 181350Z 22007KT 08/03 A2984 RMK A01 T00820031  RH  071%=      5-min Rain = 0
KJTS 181355Z 22007KT 08/03 A2983 RMK A01 T00800031  RH  072%=      5-min Rain = 0
KJTS 181400Z 23008KT 08/03 A2984 RMK A01 T00790031  RH  073%=      5-min Rain = 0
KJTS 181405Z 22008KT 08/03 A2984 RMK A01 T00800031  RH  073%=      5-min Rain = 0
KJTS 181410Z 22007KT 08/03 A2984 RMK A01 T00780031  RH  073%=      5-min Rain = 0
KJTS 181415Z 22008KT 08/03 A2984 RMK A01 T00800032  RH  073%=      5-min Rain = 0
KJTS 181420Z 22008KT 09/03 A2983 RMK A01 T00860034  RH  071%=      5-min Rain = 0
KJTS 181425Z 22008KT 09/04 A2983 RMK A01 T00890035  RH  070%=      5-min Rain = 0
KJTS 181430Z 21007KT 09/04 A2983 RMK A01 T00880036  RH  071%=      5-min Rain = 0
KJTS 181435Z 21008KT 09/04 A2983 RMK A01 T00890037  RH  071%=      5-min Rain = 0
KJTS 181440Z 21007KT 09/04 A2982 RMK A01 T00910038  RH  071%=      5-min Rain = 0
KJTS 181445Z 21008KT 09/04 A2982 RMK A01 T00920039  RH  071%=      5-min Rain = 0
KJTS 181450Z 20007KT 10/04 A2982 RMK A01 T00950040  RH  070%=      5-min Rain = 0
KJTS 181455Z 21006KT 10/04 A2982 RMK A01 T00970041  RH  069%=      5-min Rain = 0
KJTS 181500Z 21007KT 10/04 A2982 RMK A01 T01000042  RH  068%=      5-min Rain = 0
KJTS 181505Z 21008KT 10/04 A2982 RMK A01 T01030042  RH  067%=      5-min Rain = 0
KJTS 181510Z 21007KT 11/04 A2982 RMK A01 T01060043  RH  066%=      5-min Rain = 0
KJTS 181515Z 20008KT 11/04 A2982 RMK A01 T01090043  RH  065%=      5-min Rain = 0
KJTS 181520Z 20007KT 11/04 A2981 RMK A01 T01100043  RH  064%=      5-min Rain = 0
KJTS 181525Z 20007KT 11/04 A2981 RMK A01 T01080042  RH  065%=      5-min Rain = 0
KJTS 181530Z 21007KT 11/05 A2982 RMK A01 T01110045  RH  065%=      5-min Rain = 0
KJTS 181535Z 20007KT 12/05 A2982 RMK A01 T01160045  RH  063%=      5-min Rain = 0
KJTS 181540Z 21006KT 12/05 A2982 RMK A01 T01180046  RH  063%=      5-min Rain = 0
KJTS 181545Z 21007KT 12/05 A2982 RMK A01 T01220046  RH  061%=      5-min Rain = 0
KJTS 181550Z 21007KT 13/05 A2982 RMK A01 T01260047  RH  060%=      5-min Rain = 0
KJTS 181555Z 21007KT 13/05 A2982 RMK A01 T01300047  RH  058%=      5-min Rain = 0
KJTS 181600Z 23006KT 13/05 A2982 RMK A01 T01300046  RH  058%=      5-min Rain = 0
KJTS 181605Z 24005KT 13/05 A2982 RMK A01 T01280046  RH  058%=      5-min Rain = 0
KJTS 181610Z 26004KT 13/05 A2982 RMK A01 T01270047  RH  059%=      5-min Rain = 0
KJTS 181615Z 27005KT 13/05 A2982 RMK A01 T01280048  RH  060%=      5-min Rain = 0
KJTS 181620Z 27006KT 13/05 A2982 RMK A01 T01310049  RH  059%=      5-min Rain = 0
KJTS 181625Z 26006KT 13/05 A2982 RMK A01 T01330051  RH  059%=      5-min Rain = 0
KJTS 181630Z 26006KT 14/05 A2981 RMK A01 T01390052  RH  057%=      5-min Rain = 0
KJTS 181635Z 25005KT 14/05 A2981 RMK A01 T01410051  RH  056%=      5-min Rain = 0
KJTS 181640Z 26005KT 14/05 A2981 RMK A01 T01430051  RH  055%=      5-min Rain = 0
KJTS 181645Z 27005KT 15/05 A2981 RMK A01 T01470052  RH  054%=      5-min Rain = 0
KJTS 181650Z 26005KT 15/05 A298 RMK A01 T01510051  RH  052%=      5-min Rain = 0
KJTS 181655Z 27005KT 16/05 A298 RMK A01 T01560051  RH  051%=      5-min Rain = 0
KJTS 181700Z 26006KT 16/05 A2979 RMK A01 T01620052  RH  049%=      5-min Rain = 0
KJTS 181705Z 25007KT 17/05 A2979 RMK A01 T01660052  RH  048%=      5-min Rain = 0
KJTS 181710Z 25007KT 17/05 A2979 RMK A01 T01730052  RH  046%=      5-min Rain = 0
KJTS 181715Z 24008KT 18/05 A2979 RMK A01 T01780050  RH  044%=      5-min Rain = 0
KJTS 181720Z 24009KT 18/05 A2979 RMK A01 T01830049  RH  042%=      5-min Rain = 0
KJTS 181725Z 24009G15KT 19/05 A2978 RMK A01 T01860049  RH  041%=      5-min Rain = 0
KJTS 181730Z 23013KT 19/04 A2978 RMK A01 T01940043  RH  038%=      5-min Rain = 0
KJTS 181735Z 22013G19KT 20/04 A2978 RMK A01 T01970042  RH  037%=      5-min Rain = 0
KJTS 181740Z 23015G20KT 20/04 A2977 RMK A01 T02000039  RH  035%=      5-min Rain = 0
KJTS 181745Z 24016G22KT 20/04 A2977 RMK A01 T02020035  RH  034%=      5-min Rain = 0
KJTS 181750Z 24016G25KT 21/03 A2976 RMK A01 T02060033  RH  033%=      5-min Rain = 0
KJTS 181755Z 24019G26KT 21/03 A2976 RMK A01 T02050029  RH  032%=      5-min Rain = 0
KJTS 181800Z 24018G25KT 21/03 A2976 RMK A01 T02060029  RH  032%=      5-min Rain = 0
KJTS 181805Z 24019G25KT 21/03 A2975 RMK A01 T02060030  RH  032%=      5-min Rain = 0
KJTS 181810Z 24016G21KT 21/03 A2974 RMK A01 T02090029  RH  031%=      5-min Rain = 0
KJTS 181815Z 25018G24KT 21/03 A2974 RMK A01 T02090026  RH  030%=      5-min Rain = 0
KJTS 181820Z 26012G17KT 21/03 A2973 RMK A01 T02140030  RH  030%=      5-min Rain = 0
KJTS 181825Z 25015G22KT 22/03 A2973 RMK A01 T02170028  RH  029%=      5-min Rain = 0
KJTS 181830Z 26015G21KT 22/03 A2972 RMK A01 T02190026  RH  028%=      5-min Rain = 0
KJTS 181835Z 25016G23KT 22/02 A2971 RMK A01 T02210024  RH  028%=      5-min Rain = 0
KJTS 181840Z 26014G19KT 22/03 A297 RMK A01 T02240026  RH  028%=      5-min Rain = 0
KJTS 181845Z 26014G20KT 23/03 A297 RMK A01 T02250026  RH  027%=      5-min Rain = 0
KJTS 181850Z 26014KT 23/03 A2969 RMK A01 T02250025  RH  027%=      5-min Rain = 0
KJTS 181855Z 26014G21KT 23/03 A2969 RMK A01 T02250025  RH  027%=      5-min Rain = 0
KJTS 181900Z 26011KT 23/03 A2968 RMK A01 T02290029  RH  027%=      5-min Rain = 0
KJTS 181905Z 25011G16KT 23/03 A2967 RMK A01 T02320027  RH  027%=      5-min Rain = 0
KJTS 181910Z 24014G25KT 23/03 A2967 RMK A01 T02320025  RH  026%=      5-min Rain = 0
KJTS 181915Z 25018G27KT 23/02 A2967 RMK A01 T02310015  RH  025%=      5-min Rain = 0
KJTS 181920Z 26020G27KT 23/01 A2966 RMK A01 T02290014  RH  025%=      5-min Rain = 0
KJTS 181925Z 26021G29KT 23/01 A2966 RMK A01 T02260013  RH  025%=      5-min Rain = 0
KJTS 181930Z 25018G27KT 22/01 A2966 RMK A01 T02240014  RH  025%=      5-min Rain = 0
KJTS 181935Z 25015G25KT 22/02 A2965 RMK A01 T02240018  RH  026%=      5-min Rain = 0
KJTS 181940Z 26020G28KT 23/02 A2965 RMK A01 T02250015  RH  025%=      5-min Rain = 0
KJTS 181945Z 26021G27KT 23/01 A2964 RMK A01 T02250012  RH  025%=      5-min Rain = 0
KJTS 181950Z 26019G29KT 23/01 A2965 RMK A01 T02250013  RH  025%=      5-min Rain = 0
KJTS 181955Z 26015G24KT 23/01 A2964 RMK A01 T02250014  RH  025%=      5-min Rain = 0
KJTS 182000Z 26016G23KT 23/01 A2964 RMK A01 T02260014  RH  025%=      5-min Rain = 0
KJTS 182005Z 26018G23KT 23/01 A2964 RMK A01 T02250013  RH  025%=      5-min Rain = 0
KJTS 182010Z 26019G31KT 23/01 A2963 RMK A01 T02250012  RH  025%=      5-min Rain = 0
KJTS 182015Z 27021G29KT 22/01 A2963 RMK A01 T02240009  RH  024%=      5-min Rain = 0
KJTS 182020Z 27020G26KT 22/01 A2963 RMK A01 T02230008  RH  024%=      5-min Rain = 0
KJTS 182025Z 27018G29KT 22/01 A2963 RMK A01 T02230009  RH  025%=      5-min Rain = 0
KJTS 182030Z 26019G24KT 22/01 A2962 RMK A01 T02240010  RH  025%=      5-min Rain = 0
KJTS 182035Z 26018G26KT 23/01 A2962 RMK A01 T02260010  RH  024%=      5-min Rain = 0
KJTS 182040Z 27018G25KT 23/01 A2962 RMK A01 T02300011  RH  024%=      5-min Rain = 0
KJTS 182045Z 26021G28KT 23/01 A2962 RMK A01 T02300008  RH  023%=      5-min Rain = 0
KJTS 182050Z 27020G26KT 23/01 A2962 RMK A01 T02300007  RH  023%=      5-min Rain = 0
KJTS 182055Z 27019G27KT 23/01 A2961 RMK A01 T02300007  RH  023%=      5-min Rain = 0
KJTS 182100Z 26021G29KT 23/01 A2961 RMK A01 T02300006  RH  023%=      5-min Rain = 0
KJTS 182105Z 26022G30KT 23/01 A2961 RMK A01 T02340006  RH  022%=      5-min Rain = 0
KJTS 182110Z 26022G32KT 23/01 A2961 RMK A01 T02310005  RH  023%=      5-min Rain = 0
KJTS 182115Z 26023G33KT 23/00 A2961 RMK A01 T02300003  RH  023%=      5-min Rain = 0
KJTS 182120Z 27023G31KT 23/00 A2961 RMK A01 T02320003  RH  022%=      5-min Rain = 0
KJTS 182125Z 26022G33KT 23/00 A2962 RMK A01 T02310004  RH  023%=      5-min Rain = 0
KJTS 182130Z 27020G28KT 23/01 A2962 RMK A01 T02300005  RH  023%=      5-min Rain = 0
KJTS 182135Z 27021G32KT 23/00 A2962 RMK A01 T02280003  RH  023%=      5-min Rain = 0
KJTS 182140Z 27020G30KT 23/00 A2961 RMK A01 T02290000  RH  022%=      5-min Rain = 0
KJTS 182145Z 27022G33KT 23/00 A2961 RMK A01 T02270003  RH  023%=      5-min Rain = 0
KJTS 182150Z 27023G35KT 23/00 A2961 RMK A01 T02250004  RH  023%=      5-min Rain = 0
KJTS 182155Z 27023G29KT 23/M00 A2961 RMK A01 T02271002  RH  022%=      5-min Rain = 0
KJTS 182200Z 27023G32KT 22/M00 A2962 RMK A01 T02241001  RH  023%=      5-min Rain = 0
KJTS 182205Z 27021G28KT 22/00 A2962 RMK A01 T02220002  RH  023%=      5-min Rain = 0
KJTS 182210Z 27027G39KT 22/M00 A2962 RMK A01 T02181003  RH  023%=      5-min Rain = 0
KJTS 182215Z 27022G32KT 22/M00 A2962 RMK A01 T02171001  RH  024%=      5-min Rain = 0
KJTS 182220Z 27024G34KT 22/M00 A2963 RMK A01 T02151002  RH  024%=      5-min Rain = 0
KJTS 182225Z 27023G31KT 22/00 A2963 RMK A01 T02150002  RH  024%=      5-min Rain = 0
KJTS 182230Z 27021G30KT 21/00 A2963 RMK A01 T02140002  RH  025%=      5-min Rain = 0
KJTS 182235Z 26020G30KT 21/00 A2963 RMK A01 T02130002  RH  025%=      5-min Rain = 0
KJTS 182240Z 27022G30KT 21/00 A2963 RMK A01 T02120004  RH  025%=      5-min Rain = 0
KJTS 182245Z 27020G27KT 21/01 A2963 RMK A01 T02100007  RH  026%=      5-min Rain = 0
KJTS 182250Z 27021G29KT 21/01 A2963 RMK A01 T02090008  RH  026%=      5-min Rain = 0
KJTS 182255Z 27022G32KT 21/01 A2963 RMK A01 T02090007  RH  026%=      5-min Rain = 0
KJTS 182300Z 27020G29KT 21/01 A2963 RMK A01 T02080007  RH  027%=      5-min Rain = 0
KJTS 182305Z 27021G29KT 21/01 A2963 RMK A01 T02070007  RH  027%=      5-min Rain = 0
KJTS 182310Z 26016G23KT 21/01 A2963 RMK A01 T02050009  RH  027%=      5-min Rain = 0
KJTS 182315Z 27019G27KT 21/01 A2963 RMK A01 T02050010  RH  028%=      5-min Rain = 0
KJTS 182320Z 26017G25KT 20/01 A2964 RMK A01 T02030011  RH  028%=      5-min Rain = 0
KJTS 182325Z 26017G26KT 20/01 A2964 RMK A01 T02020012  RH  029%=      5-min Rain = 0
KJTS 182330Z 27016G22KT 20/01 A2964 RMK A01 T02000013  RH  029%=      5-min Rain = 0
KJTS 182335Z 27020G29KT 20/01 A2965 RMK A01 T01980012  RH  029%=      5-min Rain = 0
KJTS 182340Z 26018G24KT 20/01 A2965 RMK A01 T01970011  RH  029%=      5-min Rain = 0
KJTS 182345Z 26017G25KT 20/01 A2965 RMK A01 T01960010  RH  029%=      5-min Rain = 0
KJTS 182350Z 26016G27KT 19/01 A2965 RMK A01 T01940010  RH  030%=      5-min Rain = 0
KJTS 182355Z 26024G35KT 20/01 A2965 RMK A01 T01950005  RH  028%=      5-min Rain = 0
KJTS 190000Z 27025G34KT 19/M00 A2965 RMK A01 T01941004  RH  027%=      5-min Rain = 0
KJTS 190005Z 27021G28KT 19/M01 A2966 RMK A01 T01911006  RH  027%=      5-min Rain = 0
KJTS 190010Z 27018G31KT 19/M01 A2966 RMK A01 T01881007  RH  027%=      5-min Rain = 0
KJTS 190015Z 27014G22KT 19/M00 A2966 RMK A01 T01861004  RH  028%=      5-min Rain = 0
KJTS 190020Z 26020G30KT 19/M01 A2966 RMK A01 T01871005  RH  028%=      5-min Rain = 0
KJTS 190025Z 24019G27KT 18/01 A2966 RMK A01 T01840005  RH  030%=      5-min Rain = 0
KJTS 190030Z 24020G31KT 19/00 A2966 RMK A01 T01850003  RH  030%=      5-min Rain = 0
KJTS 190035Z 23018G25KT 18/01 A2966 RMK A01 T01810011  RH  032%=      5-min Rain = 0
KJTS 190040Z 24018G24KT 18/01 A2966 RMK A01 T01780010  RH  033%=      5-min Rain = 0
KJTS 190045Z 25016G24KT 18/00 A2966 RMK A01 T01790003  RH  031%=      5-min Rain = 0
KJTS 190050Z 26016G25KT 18/M01 A2965 RMK A01 T01821005  RH  028%=      5-min Rain = 0
KJTS 190055Z 25017G26KT 19/M03 A2963 RMK A01 T01861031  RH  023%=      5-min Rain = 0
KJTS 190100Z 26015G22KT 19/M05 A2965 RMK A01 T01901051  RH  019%=      5-min Rain = 0
KJTS 190105Z 27018G27KT 19/M04 A2967 RMK A01 T01871043  RH  021%=      5-min Rain = 0
KJTS 190110Z 26018G25KT 19/M04 A2968 RMK A01 T01871044  RH  021%=      5-min Rain = 0
KJTS 190115Z 25018G27KT 19/M03 A2969 RMK A01 T01851034  RH  022%=      5-min Rain = 0
KJTS 190120Z 25021G28KT 18/M03 A2968 RMK A01 T01831031  RH  023%=      5-min Rain = 0
KJTS 190125Z 25017G24KT 18/M04 A2967 RMK A01 T01811035  RH  023%=      5-min Rain = 0
KJTS 190130Z 25015G22KT 18/M04 A2968 RMK A01 T01781035  RH  023%=      5-min Rain = 0
KJTS 190135Z 26021G29KT 18/M04 A2968 RMK A01 T01771039  RH  023%=      5-min Rain = 0
KJTS 190140Z 25019G29KT 18/M04 A2968 RMK A01 T01751041  RH  023%=      5-min Rain = 0
KJTS 190145Z 26015G21KT 17/M04 A2968 RMK A01 T01711041  RH  023%=      5-min Rain = 0
KJTS 190150Z 26016G24KT 17/M04 A2968 RMK A01 T01701044  RH  023%=      5-min Rain = 0
KJTS 190155Z 26014G22KT 17/M05 A2967 RMK A01 T01681046  RH  023%=      5-min Rain = 0
KJTS 190200Z 26014G19KT 17/M05 A2967 RMK A01 T01651046  RH  023%=      5-min Rain = 0
KJTS 190205Z 26013G20KT 16/M05 A2967 RMK A01 T01641046  RH  023%=      5-min Rain = 0
KJTS 190210Z 26013G19KT 16/M05 A2968 RMK A01 T01611046  RH  024%=      5-min Rain = 0
KJTS 190215Z 26013G18KT 16/M05 A2968 RMK A01 T01581045  RH  024%=      5-min Rain = 0
KJTS 190220Z 26012G19KT 16/M04 A2969 RMK A01 T01561044  RH  025%=      5-min Rain = 0
KJTS 190225Z 26011G16KT 16/M04 A2969 RMK A01 T01551044  RH  025%=      5-min Rain = 0
KJTS 190230Z 26011G17KT 15/M04 A2969 RMK A01 T01531044  RH  026%=      5-min Rain = 0
KJTS 190235Z 26013G18KT 15/M05 A297 RMK A01 T01541045  RH  025%=      5-min Rain = 0
KJTS 190240Z 29021G32KT 15/M04 A2972 RMK A01 T01531043  RH  026%=      5-min Rain = 0
KJTS 190245Z 34022G29KT 11/M01 A2976 RMK A01 T01091010  RH  044%=      5-min Rain = 0
KJTS 190250Z 35023G32KT 09/M00 A2977 RMK A01 T00881002  RH  054%=      5-min Rain = 0
KJTS 190255Z 34024G32KT 08/M00 A2978 RMK A01 T00781001  RH  058%=      5-min Rain = 0
KJTS 190300Z 35022G31KT 07/M00 A2979 RMK A01 T00701002  RH  061%=      5-min Rain = 0
KJTS 190305Z 34021G31KT 07/00 A298 RMK A01 T006700-0  RH  063%=      5-min Rain = 0
KJTS 190310Z 34026G34KT 07/M00 A2981 RMK A01 T00651001  RH  063%=      5-min Rain = 0
KJTS 190315Z 33025G33KT 06/M00 A2982 RMK A01 T00631001  RH  064%=      5-min Rain = 0
KJTS 190320Z 33021G30KT 06/M00 A2983 RMK A01 T00621001  RH  065%=      5-min Rain = 0
KJTS 190325Z 33023G32KT 06/M00 A2984 RMK A01 T00601002  RH  065%=      5-min Rain = 0
KJTS 190330Z 34022G31KT 06/M00 A2984 RMK A01 T00591003  RH  065%=      5-min Rain = 0
KJTS 190335Z 34020G27KT 06/M00 A2984 RMK A01 T00591003  RH  065%=      5-min Rain = 0
KJTS 190340Z 34020G28KT 06/M00 A2985 RMK A01 T00571003  RH  066%=      5-min Rain = 0
KJTS 190345Z 34019G26KT 06/M00 A2985 RMK A01 T00561004  RH  066%=      5-min Rain = 0
KJTS 190350Z 33022G31KT 06/M00 A2986 RMK A01 T00571004  RH  066%=      5-min Rain = 0
KJTS 190355Z 33020G28KT 06/M00 A2987 RMK A01 T00591003  RH  065%=      5-min Rain = 0
KJTS 190400Z 32022G29KT 06/M00 A2987 RMK A01 T00591003  RH  065%=      5-min Rain = 0
KJTS 190405Z 32022G31KT 06/M00 A2987 RMK A01 T00581003  RH  066%=      5-min Rain = 0
KJTS 190410Z 32025G32KT 06/M00 A2988 RMK A01 T00581003  RH  065%=      5-min Rain = 0
KJTS 190415Z 32026G32KT 06/M00 A2989 RMK A01 T00581003  RH  066%=      5-min Rain = 0
KJTS 190420Z 33024G33KT 06/M00 A299 RMK A01 T00581003  RH  066%=      5-min Rain = 0
KJTS 190425Z 33025G31KT 06/M00 A299 RMK A01 T00571003  RH  066%=      5-min Rain = 0
KJTS 190430Z 33025G31KT 06/M00 A299 RMK A01 T00561003  RH  066%=      5-min Rain = 0
KJTS 190435Z 33021G28KT 06/M00 A2991 RMK A01 T00561003  RH  066%=      5-min Rain = 0
KJTS 190440Z 33022G29KT 06/M00 A2992 RMK A01 T00561003  RH  066%=      5-min Rain = 0
KJTS 190445Z 33026G34KT 06/M01 A2993 RMK A01 T00551005  RH  066%=      5-min Rain = 0
KJTS 190450Z 34021G28KT 06/M01 A2993 RMK A01 T00551006  RH  065%=      5-min Rain = 0
KJTS 190455Z 33021G31KT 06/M01 A2994 RMK A01 T00551007  RH  065%=      5-min Rain = 0
KJTS 190500Z 32025G32KT 05/M01 A2994 RMK A01 T00541011  RH  064%=      5-min Rain = 0
KJTS 190505Z 33020G27KT 05/M01 A2994 RMK A01 T00531011  RH  064%=      5-min Rain = 0
KJTS 190510Z 33022G32KT 05/M01 A2995 RMK A01 T00531012  RH  064%=      5-min Rain = 0
KJTS 190515Z 33026G32KT 05/M01 A2995 RMK A01 T00511013  RH  064%=      5-min Rain = 0
KJTS 190520Z 33026G35KT 05/M01 A2995 RMK A01 T00501014  RH  063%=      5-min Rain = 0
KJTS 190525Z 33022G29KT 05/M02 A2996 RMK A01 T00501015  RH  063%=      5-min Rain = 0
KJTS 190530Z 33025G34KT 05/M02 A2996 RMK A01 T00501017  RH  063%=      5-min Rain = 0
KJTS 190535Z 33023G32KT 05/M02 A2997 RMK A01 T00491018  RH  062%=      5-min Rain = 0
KJTS 190540Z 33024G31KT 05/M02 A2998 RMK A01 T00491019  RH  062%=      5-min Rain = 0
KJTS 190545Z 33025G34KT 05/M02 A2998 RMK A01 T00481020  RH  062%=      5-min Rain = 0
KJTS 190550Z 33023G30KT 05/M02 A2998 RMK A01 T00471020  RH  062%=      5-min Rain = 0
KJTS 190555Z 34024G32KT 05/M02 A2999 RMK A01 T00461019  RH  063%=      5-min Rain = 0

Page generated in 0.009 seconds.